createdAt,value
2017-12-30T00:01:19.356Z,91.81
2017-12-30T00:03:45.333Z,91.98
2017-12-30T00:06:11.383Z,92.08
2017-12-30T00:08:37.376Z,92.53
2017-12-30T00:11:03.468Z,92.50
2017-12-30T00:13:29.516Z,92.42
2017-12-30T00:15:55.520Z,92.19
2017-12-30T00:18:21.524Z,92.14
2017-12-30T00:20:47.581Z,92.21
2017-12-30T00:23:13.644Z,92.04
2017-12-30T00:25:39.700Z,92.46
2017-12-30T00:28:05.733Z,92.76
2017-12-30T00:30:31.836Z,93.03
2017-12-30T00:32:57.900Z,92.54
2017-12-30T00:35:23.957Z,92.28
2017-12-30T00:37:49.996Z,92.31
2017-12-30T00:40:16.027Z,92.13
2017-12-30T00:42:42.190Z,91.96
2017-12-30T00:45:08.392Z,91.99
2017-12-30T00:47:34.361Z,92.18
2017-12-30T00:50:00.405Z,92.17
2017-12-30T00:52:26.572Z,92.15
2017-12-30T00:54:52.552Z,92.30
2017-12-30T00:57:18.631Z,92.26
2017-12-30T00:59:44.687Z,92.37
2017-12-30T01:02:10.877Z,92.32
2017-12-30T01:04:36.885Z,92.12
2017-12-30T01:07:02.916Z,92.35
2017-12-30T01:09:29.012Z,92.50
2017-12-30T01:11:55.051Z,92.61
2017-12-30T01:14:21.100Z,92.56
2017-12-30T01:16:47.204Z,92.44
2017-12-30T01:19:13.216Z,92.57
2017-12-30T01:21:39.296Z,92.58
2017-12-30T01:24:05.353Z,92.38
2017-12-30T01:26:31.444Z,92.19
2017-12-30T01:28:57.460Z,92.33
2017-12-30T01:31:23.457Z,92.69
2017-12-30T01:33:49.491Z,92.47
2017-12-30T01:36:15.532Z,92.74
2017-12-30T01:38:41.593Z,93.06
2017-12-30T01:41:07.624Z,92.91
2017-12-30T01:43:33.661Z,92.59
2017-12-30T01:45:59.696Z,92.71
2017-12-30T01:48:25.716Z,92.51
2017-12-30T01:50:51.688Z,92.64
2017-12-30T01:53:17.651Z,92.95
2017-12-30T01:55:44.144Z,93.02
2017-12-30T01:58:10.177Z,92.94
2017-12-30T02:00:36.280Z,92.82
2017-12-30T02:03:02.297Z,92.82
2017-12-30T02:05:28.329Z,92.59
2017-12-30T02:07:54.300Z,92.49
2017-12-30T02:10:20.312Z,92.20
2017-12-30T02:12:46.337Z,92.17
2017-12-30T02:15:12.398Z,92.19
2017-12-30T02:17:38.368Z,92.07
2017-12-30T02:20:04.345Z,92.31
2017-12-30T02:22:30.464Z,92.57
2017-12-30T02:24:56.489Z,92.33
2017-12-30T02:27:22.593Z,92.45
2017-12-30T02:29:48.615Z,92.05
2017-12-30T02:32:14.642Z,91.98
2017-12-30T02:34:40.652Z,92.57
2017-12-30T02:37:06.695Z,92.62
2017-12-30T02:39:32.664Z,92.63
2017-12-30T02:41:58.708Z,92.49
2017-12-30T02:44:24.793Z,92.28
2017-12-30T02:46:50.780Z,92.88
2017-12-30T02:49:16.859Z,93.26
2017-12-30T02:51:42.928Z,93.77
2017-12-30T02:54:08.964Z,93.75
2017-12-30T02:56:35.028Z,94.15
2017-12-30T02:59:01.029Z,94.13
2017-12-30T03:01:27.084Z,94.59
2017-12-30T03:03:53.104Z,94.10
2017-12-30T03:06:19.161Z,93.45
2017-12-30T03:08:45.176Z,93.06
2017-12-30T03:11:11.259Z,93.18
2017-12-30T03:13:37.312Z,93.73
2017-12-30T03:16:03.336Z,93.35
2017-12-30T03:18:29.435Z,93.36
2017-12-30T03:20:55.609Z,93.25
2017-12-30T03:23:21.723Z,94.03
2017-12-30T03:25:47.780Z,94.63
2017-12-30T03:28:13.804Z,94.88
2017-12-30T03:30:39.833Z,95.03
2017-12-30T03:33:05.837Z,95.43
2017-12-30T03:35:31.883Z,95.49
2017-12-30T03:37:57.899Z,95.80
2017-12-30T03:40:23.965Z,95.89
2017-12-30T03:42:50.514Z,95.97
2017-12-30T03:45:16.611Z,95.97
2017-12-30T03:47:42.701Z,95.85
2017-12-30T03:50:08.718Z,95.55
2017-12-30T03:52:34.737Z,95.27
2017-12-30T03:55:00.773Z,95.39
2017-12-30T03:57:26.812Z,95.48
2017-12-30T03:59:52.816Z,95.51
2017-12-30T04:02:18.975Z,95.78
2017-12-30T04:04:45.055Z,96.60
2017-12-30T04:07:11.072Z,97.10
2017-12-30T04:09:37.139Z,97.03
2017-12-30T04:12:03.292Z,96.87
2017-12-30T04:14:29.297Z,96.88
2017-12-30T04:16:55.408Z,96.75
2017-12-30T04:19:21.422Z,96.67
2017-12-30T04:21:47.474Z,96.56
2017-12-30T04:24:13.480Z,96.63
2017-12-30T04:26:39.704Z,96.52
2017-12-30T04:29:05.763Z,96.60
2017-12-30T04:31:31.815Z,96.80
2017-12-30T04:33:57.885Z,97.00
2017-12-30T04:36:23.904Z,96.86
2017-12-30T04:38:49.952Z,96.83
2017-12-30T04:41:16.004Z,96.75
2017-12-30T04:43:41.998Z,96.80
2017-12-30T04:46:07.973Z,96.63
2017-12-30T04:48:33.983Z,96.71
2017-12-30T04:51:00.040Z,96.77
2017-12-30T04:53:26.069Z,97.05
2017-12-30T04:55:52.145Z,97.21
2017-12-30T04:58:18.152Z,97.65
2017-12-30T05:00:44.288Z,97.39
2017-12-30T05:03:10.336Z,97.57
2017-12-30T05:05:36.364Z,97.63
2017-12-30T05:08:02.376Z,97.51
2017-12-30T05:10:28.423Z,97.38
2017-12-30T05:12:54.467Z,97.29
2017-12-30T05:15:20.539Z,97.19
2017-12-30T05:17:46.578Z,97.06
2017-12-30T05:20:12.617Z,97.06
2017-12-30T05:22:38.709Z,97.03
2017-12-30T05:25:04.719Z,96.80
2017-12-30T05:27:30.757Z,96.75
2017-12-30T05:29:56.785Z,96.65
2017-12-30T05:32:22.812Z,96.73
2017-12-30T05:34:48.824Z,96.30
2017-12-30T05:37:14.918Z,96.00
2017-12-30T05:39:40.970Z,95.67
2017-12-30T05:42:07.000Z,95.49
2017-12-30T05:44:32.977Z,95.53
2017-12-30T05:46:59.004Z,96.12
2017-12-30T05:49:25.061Z,96.79
2017-12-30T05:51:51.085Z,97.12
2017-12-30T05:54:17.195Z,97.24
2017-12-30T05:56:43.214Z,97.81
2017-12-30T05:59:09.232Z,97.80
2017-12-30T06:01:35.329Z,97.92
2017-12-30T06:04:01.384Z,97.81
2017-12-30T06:06:27.397Z,97.80
2017-12-30T06:08:53.401Z,97.68
2017-12-30T06:11:19.470Z,97.61
2017-12-30T06:13:45.496Z,97.86
2017-12-30T06:16:11.508Z,97.90
2017-12-30T06:18:37.512Z,97.64
2017-12-30T06:21:03.560Z,97.69
2017-12-30T06:23:29.612Z,97.55
2017-12-30T06:25:55.621Z,97.37
2017-12-30T06:28:21.688Z,97.53
2017-12-30T06:30:47.721Z,97.47
2017-12-30T06:33:13.721Z,97.37
2017-12-30T06:35:39.766Z,97.14
2017-12-30T06:38:05.786Z,97.12
2017-12-30T06:40:31.800Z,97.29
2017-12-30T06:42:57.821Z,97.45
2017-12-30T06:45:23.907Z,97.34
2017-12-30T06:47:49.909Z,97.24
2017-12-30T06:50:15.941Z,96.93
2017-12-30T06:52:41.985Z,96.92
2017-12-30T06:55:08.016Z,96.92
2017-12-30T06:57:34.154Z,96.73
2017-12-30T07:00:00.147Z,96.60
2017-12-30T07:02:26.152Z,96.61
2017-12-30T07:04:52.192Z,96.39
2017-12-30T07:07:18.155Z,96.56
2017-12-30T07:09:44.121Z,96.57
2017-12-30T07:12:10.155Z,96.55
2017-12-30T07:14:36.175Z,96.42
2017-12-30T07:17:02.222Z,96.05
2017-12-30T07:19:28.228Z,96.09
2017-12-30T07:21:54.261Z,96.17
2017-12-30T07:24:20.331Z,96.11
2017-12-30T07:26:46.345Z,96.17
2017-12-30T07:29:12.396Z,96.09
2017-12-30T07:31:38.409Z,95.68
2017-12-30T07:34:04.472Z,95.28
2017-12-30T07:36:30.511Z,95.17
2017-12-30T07:38:57.024Z,94.79
2017-12-30T07:41:23.026Z,94.80
2017-12-30T07:43:49.049Z,94.67
2017-12-30T07:46:15.118Z,94.71
2017-12-30T07:48:41.134Z,94.31
2017-12-30T07:51:07.174Z,94.34
2017-12-30T07:53:33.189Z,94.34
2017-12-30T07:55:59.196Z,94.64
2017-12-30T07:58:25.224Z,94.42
2017-12-30T08:00:51.240Z,94.01
2017-12-30T08:03:17.253Z,93.58
2017-12-30T08:05:43.271Z,93.09
2017-12-30T08:08:09.341Z,93.02
2017-12-30T08:10:35.377Z,92.76
2017-12-30T08:13:01.404Z,92.64
2017-12-30T08:15:37.360Z,92.53
2017-12-30T08:18:03.365Z,92.34
2017-12-30T08:20:29.357Z,92.28
2017-12-30T08:22:55.400Z,92.15
2017-12-30T08:25:21.445Z,92.36
2017-12-30T08:27:47.437Z,92.48
2017-12-30T08:30:13.479Z,92.34
2017-12-30T08:32:39.527Z,92.34
2017-12-30T08:35:05.562Z,92.35
2017-12-30T08:37:31.605Z,92.34
2017-12-30T08:39:57.600Z,92.32
2017-12-30T08:42:23.641Z,92.46
2017-12-30T08:44:49.661Z,92.70
2017-12-30T08:47:15.648Z,92.56
2017-12-30T08:49:41.724Z,92.79
2017-12-30T08:52:07.789Z,92.55
2017-12-30T08:54:33.869Z,92.50
2017-12-30T08:56:59.886Z,92.55
2017-12-30T08:59:25.996Z,92.24
2017-12-30T09:01:52.040Z,91.80
2017-12-30T09:04:18.064Z,91.39
2017-12-30T09:06:44.100Z,91.34
2017-12-30T09:09:10.103Z,90.70
2017-12-30T09:11:36.180Z,90.88
2017-12-30T09:14:02.201Z,90.65
2017-12-30T09:16:28.188Z,90.00
2017-12-30T09:18:54.265Z,90.18
2017-12-30T09:21:20.303Z,90.03
2017-12-30T09:23:46.317Z,89.92
2017-12-30T09:26:12.313Z,89.61
2017-12-30T09:28:38.378Z,89.71
2017-12-30T09:31:04.421Z,90.30
2017-12-30T09:33:30.438Z,89.69
2017-12-30T09:35:56.489Z,89.58
2017-12-30T09:38:22.511Z,89.45
2017-12-30T09:40:48.601Z,89.27
2017-12-30T09:43:14.633Z,89.36
2017-12-30T09:45:40.652Z,89.44
2017-12-30T09:48:07.348Z,89.39
2017-12-30T09:50:33.389Z,89.83
2017-12-30T09:52:59.464Z,89.79
2017-12-30T09:55:25.573Z,90.29
2017-12-30T09:57:51.677Z,90.28
2017-12-30T10:00:17.689Z,90.61
2017-12-30T10:02:43.736Z,90.62
2017-12-30T10:05:09.784Z,90.93
2017-12-30T10:07:35.855Z,90.89
2017-12-30T10:10:01.999Z,90.68
2017-12-30T10:12:28.011Z,90.79
2017-12-30T10:14:54.071Z,90.62
2017-12-30T10:17:20.062Z,90.35
2017-12-30T10:19:46.094Z,90.20
2017-12-30T10:22:12.138Z,90.70
2017-12-30T10:24:38.145Z,90.49
2017-12-30T10:27:04.217Z,90.59
2017-12-30T10:29:30.249Z,90.40
2017-12-30T10:31:56.314Z,90.09
2017-12-30T10:34:22.349Z,89.85
2017-12-30T10:36:48.393Z,90.05
2017-12-30T10:39:14.473Z,90.09
2017-12-30T10:41:40.541Z,90.11
2017-12-30T10:44:06.594Z,89.73
2017-12-30T10:46:32.626Z,89.62
2017-12-30T10:48:58.733Z,89.74
2017-12-30T10:51:24.772Z,90.09
2017-12-30T10:53:50.858Z,90.36
2017-12-30T10:56:16.956Z,90.65
2017-12-30T10:58:42.972Z,90.54
2017-12-30T11:01:09.037Z,90.79
2017-12-30T11:03:35.046Z,90.98
2017-12-30T11:06:01.076Z,90.84
2017-12-30T11:08:27.508Z,91.06
2017-12-30T11:10:53.544Z,90.90
2017-12-30T11:13:19.637Z,90.34
2017-12-30T11:15:45.762Z,91.08
2017-12-30T11:18:11.813Z,91.23
2017-12-30T11:20:37.857Z,91.21
2017-12-30T11:23:03.896Z,91.39
2017-12-30T11:25:29.977Z,91.51
2017-12-30T11:27:55.951Z,91.58
2017-12-30T11:30:22.038Z,91.25
2017-12-30T11:32:48.131Z,90.98
2017-12-30T11:35:14.147Z,91.09
2017-12-30T11:37:40.209Z,91.20
2017-12-30T11:40:06.218Z,91.16
2017-12-30T11:42:32.257Z,91.15
2017-12-30T11:44:58.301Z,90.87
2017-12-30T11:47:24.408Z,91.19
2017-12-30T11:49:50.496Z,91.60
2017-12-30T11:52:16.553Z,92.00
2017-12-30T11:54:42.638Z,91.87
2017-12-30T11:57:08.673Z,91.90
2017-12-30T11:59:34.886Z,92.24
2017-12-30T12:02:01.012Z,92.34
2017-12-30T12:04:27.116Z,92.27
2017-12-30T12:06:53.149Z,92.51
2017-12-30T12:09:19.165Z,92.74
2017-12-30T12:11:45.240Z,92.95
2017-12-30T12:14:11.258Z,93.29
2017-12-30T12:16:37.329Z,93.24
2017-12-30T12:19:03.346Z,93.19
2017-12-30T12:21:29.456Z,93.48
2017-12-30T12:23:55.496Z,93.90
2017-12-30T12:26:21.525Z,94.08
2017-12-30T12:28:47.528Z,94.07
2017-12-30T12:31:13.552Z,93.98
2017-12-30T12:33:39.661Z,93.84
2017-12-30T12:36:05.664Z,93.89
2017-12-30T12:38:31.863Z,93.90
2017-12-30T12:40:57.944Z,94.30
2017-12-30T12:43:23.969Z,94.43
2017-12-30T12:45:50.028Z,94.34
2017-12-30T12:48:16.064Z,94.29
2017-12-30T12:50:42.317Z,94.34
2017-12-30T12:53:08.349Z,94.21
2017-12-30T12:55:34.624Z,94.34
2017-12-30T12:58:00.862Z,94.36
2017-12-30T13:00:26.990Z,94.44
2017-12-30T13:02:53.092Z,94.26
2017-12-30T13:05:19.253Z,94.20
2017-12-30T13:07:45.377Z,94.50
2017-12-30T13:10:11.435Z,94.69
2017-12-30T13:12:37.420Z,94.75
2017-12-30T13:15:03.597Z,94.73
2017-12-30T13:17:29.606Z,95.16
2017-12-30T13:19:55.749Z,95.21
2017-12-30T13:22:21.812Z,95.28
2017-12-30T13:24:47.859Z,95.44
2017-12-30T13:27:13.843Z,95.50
2017-12-30T13:29:39.899Z,95.50
2017-12-30T13:32:05.996Z,95.58
2017-12-30T13:34:32.029Z,95.73
2017-12-30T13:36:58.080Z,95.92
2017-12-30T13:39:24.104Z,96.02
2017-12-30T13:41:50.149Z,96.03
2017-12-30T13:44:16.206Z,96.08
2017-12-30T13:46:42.280Z,96.06
2017-12-30T13:49:08.370Z,96.11
2017-12-30T13:51:34.439Z,96.22
2017-12-30T13:54:00.508Z,96.37
2017-12-30T13:56:26.577Z,96.48
2017-12-30T13:58:52.673Z,96.38
2017-12-30T14:01:18.789Z,96.47
2017-12-30T14:03:44.885Z,96.44
2017-12-30T14:06:11.032Z,96.41
2017-12-30T14:08:37.195Z,96.54
2017-12-30T14:11:03.337Z,96.64
2017-12-30T14:13:29.464Z,96.61
2017-12-30T14:15:55.568Z,96.52
2017-12-30T14:18:21.689Z,96.47
2017-12-30T14:20:47.785Z,96.58
2017-12-30T14:23:13.855Z,96.59
2017-12-30T14:25:39.911Z,96.60
2017-12-30T14:28:05.953Z,96.65
2017-12-30T14:30:32.049Z,96.66
2017-12-30T14:32:58.053Z,96.66
2017-12-30T14:35:24.099Z,96.56
2017-12-30T14:37:50.201Z,96.65
2017-12-30T14:40:16.331Z,96.69
2017-12-30T14:42:42.385Z,96.72
2017-12-30T14:45:08.407Z,96.81
2017-12-30T14:47:34.781Z,96.99
2017-12-30T14:50:00.867Z,96.96
2017-12-30T14:52:26.899Z,97.04
2017-12-30T14:54:52.915Z,97.11
2017-12-30T14:57:18.985Z,97.28
2017-12-30T14:59:45.016Z,97.24
2017-12-30T15:02:11.052Z,97.34
2017-12-30T15:04:37.107Z,97.47
2017-12-30T15:07:03.223Z,97.49
2017-12-30T15:09:29.288Z,97.55
2017-12-30T15:11:55.368Z,97.63
2017-12-30T15:14:22.180Z,97.73
2017-12-30T15:16:48.188Z,97.73
2017-12-30T15:19:14.285Z,97.71
2017-12-30T15:21:40.341Z,97.81
2017-12-30T15:24:06.786Z,97.94
2017-12-30T15:26:32.907Z,97.75
2017-12-30T15:28:58.998Z,97.74
2017-12-30T15:31:25.400Z,97.79
2017-12-30T15:33:51.635Z,97.74
2017-12-30T15:36:17.685Z,97.94
2017-12-30T15:38:43.778Z,97.83
2017-12-30T15:41:09.820Z,97.87
2017-12-30T15:43:35.895Z,97.86
2017-12-30T15:46:01.937Z,97.87
2017-12-30T15:48:28.037Z,97.76
2017-12-30T15:50:54.066Z,97.83
2017-12-30T15:53:20.087Z,97.74
2017-12-30T15:55:46.161Z,97.73
2017-12-30T15:58:12.193Z,97.79
2017-12-30T16:00:38.281Z,97.76
2017-12-30T16:03:04.406Z,97.94
2017-12-30T16:05:30.406Z,97.97
2017-12-30T16:07:56.424Z,97.80
2017-12-30T16:10:22.476Z,97.90
2017-12-30T16:12:48.530Z,97.94
2017-12-30T16:15:14.627Z,98.24
2017-12-30T16:17:40.663Z,98.11
2017-12-30T16:20:06.751Z,98.53
2017-12-30T16:22:32.717Z,98.31
2017-12-30T16:24:58.792Z,98.23
2017-12-30T16:27:25.361Z,98.29
2017-12-30T16:29:51.392Z,98.54
2017-12-30T16:32:17.772Z,98.73
2017-12-30T16:34:43.840Z,98.85
2017-12-30T16:37:09.837Z,99.14
2017-12-30T16:39:35.962Z,99.01
2017-12-30T16:42:01.980Z,99.03
2017-12-30T16:44:28.584Z,98.95
2017-12-30T16:46:54.758Z,99.41
2017-12-30T16:49:20.855Z,99.19
2017-12-30T16:51:46.953Z,99.31
2017-12-30T16:54:13.026Z,99.43
2017-12-30T16:56:39.044Z,98.77
2017-12-30T16:59:05.037Z,99.47
2017-12-30T17:01:31.145Z,99.56
2017-12-30T17:03:57.212Z,99.55
2017-12-30T17:06:23.242Z,99.47
2017-12-30T17:08:49.370Z,99.68
2017-12-30T17:11:15.455Z,99.57
2017-12-30T17:13:41.449Z,99.26
2017-12-30T17:16:07.488Z,99.11
2017-12-30T17:18:33.536Z,99.01
2017-12-30T17:20:59.653Z,99.36
2017-12-30T17:23:25.676Z,99.05
2017-12-30T17:25:51.733Z,98.93
2017-12-30T17:28:17.786Z,99.04
2017-12-30T17:30:43.809Z,99.15
2017-12-30T17:33:09.885Z,99.14
2017-12-30T17:35:36.016Z,98.94
2017-12-30T17:38:02.089Z,98.77
2017-12-30T17:40:28.131Z,98.66
2017-12-30T17:42:54.258Z,98.61
2017-12-30T17:45:20.386Z,98.52
2017-12-30T17:47:46.475Z,98.61
2017-12-30T17:50:12.529Z,98.67
2017-12-30T17:52:38.530Z,98.26
2017-12-30T17:55:04.627Z,98.39
2017-12-30T17:57:30.751Z,99.13
2017-12-30T17:59:56.816Z,99.40
2017-12-30T18:02:23.813Z,99.64
2017-12-30T18:04:49.870Z,99.66
2017-12-30T18:07:15.901Z,99.71
2017-12-30T18:09:41.963Z,99.56
2017-12-30T18:12:08.054Z,99.61
2017-12-30T18:14:34.126Z,99.88
2017-12-30T18:17:00.229Z,99.26
2017-12-30T18:19:27.217Z,99.72
2017-12-30T18:21:53.231Z,99.95
2017-12-30T18:24:19.341Z,99.57
2017-12-30T18:26:45.370Z,99.69
2017-12-30T18:29:11.440Z,99.79
2017-12-30T18:31:37.485Z,99.79
2017-12-30T18:34:03.493Z,99.83
2017-12-30T18:36:29.518Z,99.75
2017-12-30T18:38:55.672Z,99.92
2017-12-30T18:41:21.701Z,99.91
2017-12-30T18:43:47.805Z,99.99
2017-12-30T18:46:13.892Z,100.00
2017-12-30T18:48:39.926Z,100.00
2017-12-30T18:51:05.964Z,100.00
2017-12-30T18:53:32.021Z,100.00
2017-12-30T18:55:57.993Z,100.00
2017-12-30T18:58:24.065Z,99.35
2017-12-30T19:00:50.165Z,99.93
2017-12-30T19:03:16.197Z,100.00
2017-12-30T19:05:42.275Z,99.93
2017-12-30T19:08:08.346Z,100.00
2017-12-30T19:10:34.420Z,99.62
2017-12-30T19:13:00.428Z,99.56
2017-12-30T19:15:26.516Z,99.99
2017-12-30T19:17:52.553Z,99.66
2017-12-30T19:20:18.533Z,99.80
2017-12-30T19:22:44.706Z,99.95
2017-12-30T19:25:10.713Z,100.00
2017-12-30T19:27:36.784Z,100.00
2017-12-30T19:30:02.997Z,100.00
2017-12-30T19:32:29.124Z,100.00
2017-12-30T19:34:55.201Z,100.00
2017-12-30T19:37:21.392Z,100.00
2017-12-30T19:39:47.503Z,100.00
2017-12-30T19:42:13.554Z,100.00
2017-12-30T19:44:39.625Z,100.00
2017-12-30T19:47:05.690Z,100.00
2017-12-30T19:49:31.696Z,100.00
2017-12-30T19:51:57.781Z,100.00
2017-12-30T19:54:23.841Z,100.00
2017-12-30T19:56:50.480Z,100.00
2017-12-30T19:59:16.575Z,100.00
2017-12-30T20:01:42.638Z,99.97
2017-12-30T20:04:08.685Z,99.83
2017-12-30T20:06:34.728Z,100.00
2017-12-30T20:09:00.796Z,100.00
2017-12-30T20:11:26.893Z,100.00
2017-12-30T20:13:52.932Z,100.00
2017-12-30T20:16:18.962Z,100.00
2017-12-30T20:18:45.074Z,100.00
2017-12-30T20:21:11.116Z,100.00
2017-12-30T20:23:37.740Z,100.00
2017-12-30T20:26:03.792Z,100.00
2017-12-30T20:28:29.836Z,100.00
2017-12-30T20:30:55.858Z,100.00
2017-12-30T20:33:22.540Z,100.00
2017-12-30T20:35:48.632Z,100.00
2017-12-30T20:38:14.716Z,100.00
2017-12-30T20:40:40.786Z,100.00
2017-12-30T20:43:06.854Z,100.00
2017-12-30T20:45:32.903Z,100.00
2017-12-30T20:47:58.948Z,100.00
2017-12-30T20:50:24.975Z,100.00
2017-12-30T20:52:50.989Z,100.00
2017-12-30T20:55:17.041Z,100.00
2017-12-30T20:57:43.114Z,100.00
2017-12-30T21:00:09.105Z,100.00
2017-12-30T21:02:35.220Z,100.00
2017-12-30T21:05:01.272Z,100.00
2017-12-30T21:07:27.294Z,100.00
2017-12-30T21:09:53.331Z,100.00
2017-12-30T21:12:19.374Z,100.00
2017-12-30T21:14:45.585Z,100.00
2017-12-30T21:17:11.636Z,100.00
2017-12-30T21:19:37.680Z,100.00
2017-12-30T21:22:03.757Z,100.00
2017-12-30T21:24:29.854Z,100.00
2017-12-30T21:26:55.946Z,100.00
2017-12-30T21:29:22.040Z,100.00
2017-12-30T21:31:48.151Z,100.00
2017-12-30T21:34:15.306Z,100.00
2017-12-30T21:36:41.418Z,100.00
2017-12-30T21:39:07.645Z,100.00
2017-12-30T21:41:33.640Z,100.00
2017-12-30T21:43:59.698Z,100.00
2017-12-30T21:46:26.086Z,100.00
2017-12-30T21:48:52.144Z,100.00
2017-12-30T21:51:18.192Z,100.00
2017-12-30T21:53:44.242Z,100.00
2017-12-30T21:56:10.305Z,100.00
2017-12-30T21:58:36.407Z,100.00
2017-12-30T22:01:02.534Z,100.00
2017-12-30T22:03:28.792Z,100.00
2017-12-30T22:05:54.881Z,100.00
2017-12-30T22:08:20.934Z,100.00
2017-12-30T22:10:47.204Z,100.00
2017-12-30T22:13:13.281Z,100.00
2017-12-30T22:15:39.355Z,100.00
2017-12-30T22:18:05.396Z,100.00
2017-12-30T22:20:31.552Z,100.00
2017-12-30T22:22:57.742Z,100.00
2017-12-30T22:25:23.704Z,100.00
2017-12-30T22:27:49.751Z,100.00
2017-12-30T22:30:15.772Z,100.00
2017-12-30T22:32:41.822Z,100.00
2017-12-30T22:35:07.860Z,100.00
2017-12-30T22:37:33.994Z,100.00
2017-12-30T22:40:00.083Z,100.00
2017-12-30T22:42:26.113Z,100.00
2017-12-30T22:44:52.165Z,100.00
2017-12-30T22:47:18.275Z,100.00
2017-12-30T22:49:44.310Z,100.00
2017-12-30T22:52:10.536Z,100.00
2017-12-30T22:54:36.616Z,100.00
2017-12-30T22:57:02.743Z,100.00
2017-12-30T22:59:28.804Z,100.00
2017-12-30T23:01:54.889Z,100.00
2017-12-30T23:04:20.952Z,100.00
2017-12-30T23:06:47.366Z,100.00
2017-12-30T23:09:13.416Z,100.00
2017-12-30T23:11:39.502Z,100.00
2017-12-30T23:14:05.472Z,100.00
2017-12-30T23:16:31.536Z,100.00
2017-12-30T23:18:57.600Z,100.00
2017-12-30T23:21:23.634Z,100.00
2017-12-30T23:23:49.697Z,100.00
2017-12-30T23:26:15.758Z,100.00
2017-12-30T23:28:41.825Z,100.00
2017-12-30T23:31:07.879Z,100.00
2017-12-30T23:33:33.979Z,100.00
2017-12-30T23:36:00.044Z,100.00
2017-12-30T23:38:26.081Z,100.00
2017-12-30T23:40:52.144Z,100.00
2017-12-30T23:43:18.176Z,100.00
2017-12-30T23:45:44.208Z,100.00
2017-12-30T23:48:10.235Z,100.00
2017-12-30T23:50:36.261Z,100.00
2017-12-30T23:53:02.280Z,100.00
2017-12-30T23:55:28.310Z,100.00
2017-12-30T23:57:54.337Z,100.00
